Time;durP1;ratioP1;P1;durP2;ratioP2;P2;SDS_P1;SDS_P2;PMS_P1;PMS_P2;Temp;Humidity;BMP_temperature;BMP_pressure;BME280_temperature;BME280_humidity;BME280_pressure;Samples;Min_cycle;Max_cycle;Signal;HPM_P1;HPM_P2
2023/12/24 00:02:12;;;;;;;3.95;3.08;;;;;;;3.20;73.35;99071.47;4451034;32;20450;-80
2023/12/24 00:04:43;;;;;;;4.53;3.60;;;;;;;3.48;72.47;99064.78;4451015;32;20147;-81
2023/12/24 00:07:12;;;;;;;4.90;4.03;;;;;;;3.55;72.28;99074.00;4451120;32;20172;-81
2023/12/24 00:09:41;;;;;;;4.50;3.45;;;;;;;3.42;72.72;99088.69;4451198;32;20183;-80
2023/12/24 00:12:11;;;;;;;4.78;3.92;;;;;;;3.30;72.86;99082.31;4451947;32;20140;-80
2023/12/24 00:14:40;;;;;;;5.50;3.90;;;;;;;3.40;72.77;99078.28;4452326;32;20159;-80
2023/12/24 00:17:09;;;;;;;5.60;4.05;;;;;;;3.56;72.22;99082.69;4451366;32;20160;-80
2023/12/24 00:19:39;;;;;;;4.15;3.22;;;;;;;3.72;71.77;99086.19;4437539;32;20543;-81
2023/12/24 00:22:10;;;;;;;3.60;3.08;;;;;;;3.40;72.74;99091.38;4451754;32;20159;-80
2023/12/24 00:24:41;;;;;;;4.05;3.35;;;;;;;3.38;73.00;99093.25;4451263;32;20164;-80
2023/12/24 00:27:11;;;;;;;5.95;4.05;;;;;;;3.28;73.59;99093.78;4450762;32;20152;-80
2023/12/24 00:29:40;;;;;;;4.57;3.62;;;;;;;3.46;72.93;99103.31;4451071;32;20525;-81
2023/12/24 00:32:11;;;;;;;6.97;3.72;;;;;;;3.37;72.96;99101.19;4450904;32;20443;-81
2023/12/24 00:34:41;;;;;;;3.37;3.05;;;;;;;3.44;72.99;99100.78;4450510;32;20175;-81
2023/12/24 00:37:11;;;;;;;3.45;2.90;;;;;;;3.40;72.88;99095.78;4450939;32;20157;-81
2023/12/24 00:39:41;;;;;;;3.15;2.60;;;;;;;3.52;72.60;99097.72;4450600;32;20159;-80
2023/12/24 00:42:11;;;;;;;3.62;3.17;;;;;;;3.52;72.61;99108.22;4450545;32;20151;-80
2023/12/24 00:44:43;;;;;;;3.55;2.83;;;;;;;3.30;73.08;99103.28;4450891;32;20159;-81
2023/12/24 00:47:13;;;;;;;;;;;;;;;3.48;72.56;99109.31;4450698;32;20156;-81
2023/12/24 00:49:42;;;;;;;2.55;2.22;;;;;;;3.54;72.51;99116.84;4450352;32;20032;-81
2023/12/24 00:52:12;;;;;;;2.42;2.05;;;;;;;3.53;72.58;99117.78;4450474;32;20176;-81
2023/12/24 00:54:47;;;;;;;2.80;2.60;;;;;;;3.39;73.40;99126.34;4450543;32;20159;-80
2023/12/24 00:57:16;;;;;;;2.12;1.92;;;;;;;3.42;72.96;99141.06;4450283;32;20175;-81
2023/12/24 00:59:46;;;;;;;2.70;2.47;;;;;;;3.42;73.01;99134.06;4450658;32;20188;-81
2023/12/24 01:02:15;;;;;;;3.08;2.60;;;;;;;3.26;73.51;99137.56;4450097;32;20188;-81
2023/12/24 01:04:45;;;;;;;2.42;2.20;;;;;;;3.52;73.02;99139.66;4450013;32;20555;-81
2023/12/24 01:07:17;;;;;;;2.35;2.15;;;;;;;3.47;73.26;99152.12;4450192;32;20210;-81
2023/12/24 01:09:46;;;;;;;2.67;2.37;;;;;;;3.34;73.54;99154.56;4450054;32;20203;-81
2023/12/24 01:12:15;;;;;;;3.50;2.45;;;;;;;3.51;73.15;99150.22;4451148;32;20164;-82
2023/12/24 01:14:44;;;;;;;2.53;2.33;;;;;;;3.28;73.61;99141.78;4451186;32;20218;-81
2023/12/24 01:17:17;;;;;;;3.03;2.58;;;;;;;3.64;72.63;99135.53;4450413;32;20170;-81
2023/12/24 01:19:46;;;;;;;3.35;3.03;;;;;;;3.51;72.95;99147.59;4450081;32;20933;-80
2023/12/24 01:22:16;;;;;;;2.60;2.40;;;;;;;3.14;74.46;99139.03;4450764;32;20155;-80
2023/12/24 01:24:49;;;;;;;3.85;2.70;;;;;;;3.35;73.73;99137.06;4450164;32;20172;-80
2023/12/24 01:27:19;;;;;;;2.50;2.30;;;;;;;3.52;73.25;99151.91;4449834;32;20738;-80
2023/12/24 01:29:49;;;;;;;2.80;2.10;;;;;;;3.87;71.99;99148.25;4452570;32;20152;-80
2023/12/24 01:32:18;;;;;;;2.47;2.20;;;;;;;3.81;72.11;99145.97;4452145;32;20179;-80
2023/12/24 01:34:47;;;;;;;2.33;2.12;;;;;;;3.88;71.58;99136.88;4452068;32;20245;-80
2023/12/24 01:37:19;;;;;;;2.45;2.25;;;;;;;4.11;71.04;99146.06;4452371;32;20148;-80
2023/12/24 01:39:48;;;;;;;3.50;2.65;;;;;;;4.26;70.44;99147.00;4452237;32;20171;-80
2023/12/24 01:42:17;;;;;;;4.97;2.58;;;;;;;4.33;70.04;99148.37;4452372;32;20152;-80
2023/12/24 01:44:46;;;;;;;2.47;2.25;;;;;;;4.34;69.93;99146.59;4452900;32;20180;-80
2023/12/24 01:47:16;;;;;;;2.42;2.17;;;;;;;4.30;69.99;99150.31;4452279;32;20195;-80
2023/12/24 01:49:46;;;;;;;3.20;2.60;;;;;;;4.57;69.38;99154.00;4452099;32;20171;-80
2023/12/24 01:52:16;;;;;;;2.45;1.95;;;;;;;4.40;69.76;99154.13;4452283;32;20151;-80
2023/12/24 01:54:49;;;;;;;2.85;2.60;;;;;;;4.45;69.55;99146.84;4452298;32;20172;-80
2023/12/24 01:57:18;;;;;;;3.83;2.57;;;;;;;4.25;70.12;99145.31;4452089;32;20547;-80
2023/12/24 01:59:50;;;;;;;3.95;2.70;;;;;;;4.59;69.17;99140.78;4452421;32;20424;-80
2023/12/24 02:02:20;;;;;;;2.75;2.35;;;;;;;4.45;69.52;99146.84;4451936;32;20155;-80
2023/12/24 02:04:50;;;;;;;3.00;2.50;;;;;;;4.34;69.68;99141.34;4451844;32;20536;-80
2023/12/24 02:07:21;;;;;;;2.67;2.42;;;;;;;4.36;69.50;99142.13;4451934;32;20171;-79
2023/12/24 02:09:53;;;;;;;2.50;2.23;;;;;;;4.42;69.39;99134.72;4452136;32;20160;-79
2023/12/24 02:12:22;;;;;;;8.95;2.65;;;;;;;4.57;69.08;99134.81;4452000;32;20147;-80
2023/12/24 02:14:51;;;;;;;5.25;2.55;;;;;;;4.53;69.22;99142.00;4452051;32;20607;-79
2023/12/24 02:17:22;;;;;;;3.20;2.67;;;;;;;4.72;68.66;99148.84;4452293;32;20144;-80
2023/12/24 02:19:51;;;;;;;4.32;3.35;;;;;;;4.62;68.94;99148.50;4451784;32;20147;-79
2023/12/24 02:22:22;;;;;;;3.95;2.40;;;;;;;4.53;69.18;99147.25;4451942;32;20140;-80
2023/12/24 02:24:51;;;;;;;3.65;2.83;;;;;;;4.44;69.48;99143.38;4451869;32;20171;-79
2023/12/24 02:27:27;;;;;;;3.47;2.78;;;;;;;4.58;69.07;99153.06;4452316;32;20464;-80
2023/12/24 02:30:03;;;;;;;4.07;3.08;;;;;;;4.63;68.94;99158.06;4452458;32;20175;-79
2023/12/24 02:32:40;;;;;;;4.57;3.30;;;;;;;4.50;69.19;99159.69;4453284;32;20155;-79
2023/12/24 02:35:11;;;;;;;5.97;3.25;;;;;;;4.70;68.71;99162.03;4452568;32;20167;-80
2023/12/24 02:37:42;;;;;;;3.95;3.55;;;;;;;4.31;69.83;99159.88;4438257;32;20172;-79
2023/12/24 02:40:12;;;;;;;6.70;3.90;;;;;;;4.47;69.37;99159.84;4438054;32;20144;-80
2023/12/24 02:42:41;;;;;;;7.70;3.92;;;;;;;4.83;67.91;99162.16;4452551;32;20175;-79
2023/12/24 02:45:14;;;;;;;4.28;3.78;;;;;;;4.48;68.74;99162.41;4452571;32;20520;-79
2023/12/24 02:47:43;;;;;;;4.87;4.05;;;;;;;4.42;69.31;99157.50;4438806;32;20152;-80
2023/12/24 02:50:16;;;;;;;3.87;3.47;;;;;;;4.52;68.98;99150.81;4452697;32;20444;-80
2023/12/24 02:52:47;;;;;;;3.10;2.80;;;;;;;4.56;68.73;99161.97;4452502;32;20187;-79
2023/12/24 02:55:17;;;;;;;2.97;2.70;;;;;;;4.70;68.55;99159.41;4452676;32;20215;-79
2023/12/24 02:57:48;;;;;;;3.55;2.72;;;;;;;4.74;68.18;99162.69;4452924;32;20176;-79
2023/12/24 03:00:20;;;;;;;2.65;2.45;;;;;;;4.10;70.81;99161.91;4452617;32;20149;-79
2023/12/24 03:02:49;;;;;;;3.50;2.83;;;;;;;4.37;70.00;99162.16;4452955;32;20148;-80
2023/12/24 03:05:19;;;;;;;3.85;3.45;;;;;;;4.30;70.28;99158.19;4452905;32;20259;-79
2023/12/24 03:07:58;;;;;;;6.20;5.60;;;;;;;4.53;69.69;99154.28;4452573;32;20186;-79
2023/12/24 03:10:28;;;;;;;6.22;5.37;;;;;;;4.49;69.35;99155.37;4452344;32;20187;-79
2023/12/24 03:12:57;;;;;;;7.07;6.37;;;;;;;4.43;69.64;99149.56;4451597;32;20171;-79
2023/12/24 03:15:26;;;;;;;7.57;6.25;;;;;;;4.34;69.71;99147.44;4451554;32;20159;-80
2023/12/24 03:17:59;;;;;;;9.98;6.07;;;;;;;4.57;69.20;99151.38;4445650;32;20163;-79
2023/12/24 03:20:29;;;;;;;8.80;7.18;;;;;;;4.51;69.50;99150.88;4451836;32;20187;-79
2023/12/24 03:22:59;;;;;;;7.30;6.53;;;;;;;4.56;69.33;99154.94;4451421;32;20211;-79
2023/12/24 03:25:29;;;;;;;7.53;6.72;;;;;;;4.62;69.15;99154.59;4451492;32;20168;-79
2023/12/24 03:27:59;;;;;;;11.65;6.32;;;;;;;4.69;68.92;99150.69;4451466;32;20188;-79
2023/12/24 03:30:29;;;;;;;5.50;4.82;;;;;;;4.58;69.26;99157.47;4437261;32;20459;-80
2023/12/24 03:32:58;;;;;;;6.62;5.10;;;;;;;4.63;68.94;99147.56;4451353;32;20180;-79
2023/12/24 03:35:28;;;;;;;6.97;6.05;;;;;;;4.61;69.25;99150.28;4451677;32;20195;-79
2023/12/24 03:38:01;;;;;;;8.85;5.90;;;;;;;4.80;68.76;99151.88;4451446;32;20199;-79
2023/12/24 03:40:30;;;;;;;7.72;5.55;;;;;;;4.71;68.79;99150.59;4451297;32;20168;-79
2023/12/24 03:43:00;;;;;;;7.00;5.30;;;;;;;4.56;69.32;99157.56;4451234;32;20149;-79
2023/12/24 03:45:29;;;;;;;6.18;4.85;;;;;;;4.63;69.27;99161.56;4451159;32;20144;-79
2023/12/24 03:48:03;;;;;;;7.95;5.62;;;;;;;4.40;69.69;99148.88;4451431;32;20155;-79
2023/12/24 03:50:33;;;;;;;8.50;5.18;;;;;;;4.74;68.78;99157.44;4450514;32;20160;-79
2023/12/24 03:53:05;;;;;;;8.10;6.93;;;;;;;4.73;68.71;99166.25;4451150;32;20194;-79
2023/12/24 03:55:34;;;;;;;7.60;5.45;;;;;;;4.67;68.90;99162.19;4451084;32;20172;-79
2023/12/24 03:58:03;;;;;;;7.55;5.55;;;;;;;4.81;68.56;99164.06;4451098;32;20172;-79
2023/12/24 04:00:33;;;;;;;6.65;5.50;;;;;;;4.68;68.69;99162.13;4451023;32;20156;-79
2023/12/24 04:03:02;;;;;;;5.18;4.07;;;;;;;4.69;68.56;99157.72;4451252;32;20160;-79
2023/12/24 04:05:34;;;;;;;7.55;6.18;;;;;;;4.70;68.93;99154.16;4451397;32;20160;-79
2023/12/24 04:08:09;;;;;;;7.60;5.07;;;;;;;4.76;68.69;99166.09;4451043;32;20168;-79
2023/12/24 04:10:39;;;;;;;7.37;6.20;;;;;;;4.61;69.25;99152.06;4450960;32;20167;-79
2023/12/24 04:13:14;;;;;;;10.52;6.10;;;;;;;4.48;69.63;99161.56;4451554;32;20168;-79
2023/12/24 04:15:43;;;;;;;9.32;6.68;;;;;;;4.45;69.73;99157.31;4451336;32;20155;-79
2023/12/24 04:18:13;;;;;;;10.88;6.87;;;;;;;4.61;69.36;99152.91;4451489;32;20431;-79
2023/12/24 04:20:43;;;;;;;8.50;6.90;;;;;;;4.76;68.91;99145.09;4451609;32;20175;-79
2023/12/24 04:23:13;;;;;;;10.70;7.72;;;;;;;4.68;69.15;99141.13;4451370;32;20152;-79
2023/12/24 04:25:43;;;;;;;9.23;7.10;;;;;;;4.61;69.33;99142.41;4451239;32;20183;-79
2023/12/24 04:28:12;;;;;;;9.35;7.30;;;;;;;4.69;69.04;99145.44;4451393;32;20160;-79
2023/12/24 04:30:42;;;;;;;10.45;6.15;;;;;;;4.77;68.84;99144.16;4451584;32;20143;-79
2023/12/24 04:33:13;;;;;;;7.57;6.12;;;;;;;4.64;69.25;99131.75;4451151;32;20165;-79
2023/12/24 04:35:44;;;;;;;8.70;5.87;;;;;;;4.68;69.18;99137.66;4451595;32;20147;-79
2023/12/24 04:38:15;;;;;;;6.87;5.37;;;;;;;4.86;68.71;99141.00;4451011;32;20171;-79
2023/12/24 04:40:44;;;;;;;7.65;5.95;;;;;;;4.86;68.63;99135.75;4450957;32;20152;-79
2023/12/24 04:43:14;;;;;;;7.90;6.57;;;;;;;4.60;69.44;99135.47;4450901;32;20172;-79
2023/12/24 04:45:43;;;;;;;7.80;5.75;;;;;;;4.79;68.92;99135.28;4451310;32;20148;-79
2023/12/24 04:48:12;;;;;;;6.90;5.40;;;;;;;4.56;69.49;99136.59;4450927;32;20179;-79
2023/12/24 04:50:42;;;;;;;7.20;6.25;;;;;;;4.79;68.79;99116.91;4437088;32;20552;-79
2023/12/24 04:53:11;;;;;;;7.75;6.12;;;;;;;4.77;68.89;99116.13;4451079;32;20172;-79
2023/12/24 04:55:41;;;;;;;6.00;5.00;;;;;;;4.77;68.75;99129.25;4450980;32;20210;-79
2023/12/24 04:58:11;;;;;;;9.10;5.75;;;;;;;4.87;68.38;99122.56;4450268;32;20151;-79
2023/12/24 05:00:40;;;;;;;4.68;3.95;;;;;;;4.88;68.34;99126.03;4436065;32;20196;-79
2023/12/24 05:03:09;;;;;;;6.28;5.20;;;;;;;4.82;68.52;99121.94;4451813;32;20227;-79
2023/12/24 05:05:38;;;;;;;8.00;6.82;;;;;;;4.58;69.20;99120.75;4452754;32;20163;-79
2023/12/24 05:08:08;;;;;;;4.78;3.90;;;;;;;4.83;68.52;99126.28;4452354;32;20539;-79
2023/12/24 05:10:37;;;;;;;6.18;5.32;;;;;;;4.93;67.82;99122.19;4452354;32;20168;-79
2023/12/24 05:13:11;;;;;;;7.07;5.60;;;;;;;4.76;68.35;99142.47;4452352;32;20524;-79
2023/12/24 05:15:40;;;;;;;5.95;5.30;;;;;;;4.91;67.95;99131.94;4452621;32;20179;-79
2023/12/24 05:18:10;;;;;;;6.15;5.00;;;;;;;4.72;68.27;99126.06;4452420;32;20528;-79
2023/12/24 05:20:39;;;;;;;5.60;4.50;;;;;;;4.55;69.15;99134.03;4452706;32;20500;-79
2023/12/24 05:23:09;;;;;;;8.43;4.32;;;;;;;4.27;70.17;99130.34;4452291;32;20163;-79
2023/12/24 05:25:38;;;;;;;5.28;4.22;;;;;;;4.55;69.31;99134.03;4452291;32;20170;-79
2023/12/24 05:28:09;;;;;;;3.85;3.45;;;;;;;4.56;69.40;99133.13;4452362;32;20788;-79
2023/12/24 05:30:39;;;;;;;5.80;5.12;;;;;;;4.71;69.00;99136.62;4452512;32;20467;-79
2023/12/24 05:33:07;;;;;;;9.68;5.90;;;;;;;4.58;69.37;99136.50;4452376;32;20160;-79
2023/12/24 05:35:37;;;;;;;8.27;6.20;;;;;;;4.52;69.73;99142.94;4438588;32;20163;-79
2023/12/24 05:38:06;;;;;;;8.63;5.85;;;;;;;4.50;69.96;99150.03;4452688;32;20148;-79
2023/12/24 05:40:35;;;;;;;6.90;5.72;;;;;;;4.52;70.01;99142.94;4452480;32;20494;-79
2023/12/24 05:43:05;;;;;;;7.40;6.00;;;;;;;4.87;68.93;99140.06;4452425;32;20155;-79
2023/12/24 05:45:36;;;;;;;10.90;5.18;;;;;;;4.47;70.77;99144.97;4452064;32;20167;-79
2023/12/24 05:48:08;;;;;;;4.95;4.18;;;;;;;4.56;70.70;99144.47;4452399;32;20147;-79
2023/12/24 05:50:40;;;;;;;5.80;4.57;;;;;;;4.81;69.97;99145.69;4452309;32;20143;-79
2023/12/24 05:53:09;;;;;;;5.35;4.32;;;;;;;4.96;69.25;99141.31;4452141;32;20163;-79
2023/12/24 05:55:38;;;;;;;4.50;3.70;;;;;;;4.68;70.23;99148.16;4452095;32;20168;-79
2023/12/24 05:58:07;;;;;;;5.15;4.62;;;;;;;4.62;70.71;99148.50;4452113;32;20194;-79
2023/12/24 06:00:38;;;;;;;5.68;4.65;;;;;;;4.76;70.50;99145.09;4451975;32;20151;-79
2023/12/24 06:03:10;;;;;;;5.12;3.97;;;;;;;4.82;70.56;99155.22;4451989;32;20148;-79
2023/12/24 06:05:39;;;;;;;7.53;5.68;;;;;;;4.65;70.91;99154.41;4452267;32;20168;-79
2023/12/24 06:08:09;;;;;;;6.82;5.80;;;;;;;4.78;70.91;99159.81;4452028;32;20536;-79
2023/12/24 06:10:38;;;;;;;8.85;6.10;;;;;;;4.55;71.64;99155.03;4451927;32;20168;-79
2023/12/24 06:13:08;;;;;;;7.78;6.22;;;;;;;4.73;71.13;99158.41;4437651;32;20164;-79
2023/12/24 06:15:39;;;;;;;6.87;6.18;;;;;;;4.74;71.23;99149.59;4452287;32;20525;-79
2023/12/24 06:18:12;;;;;;;9.13;6.43;;;;;;;4.80;70.86;99157.97;4452585;32;20143;-79
2023/12/24 06:20:42;;;;;;;7.53;5.47;;;;;;;4.85;70.83;99166.41;4452955;32;20160;-79
2023/12/24 06:23:11;;;;;;;7.35;6.55;;;;;;;5.09;69.97;99165.91;4452415;32;20184;-79
2023/12/24 06:25:40;;;;;;;8.73;6.53;;;;;;;5.02;70.24;99172.47;4452682;32;20774;-79
2023/12/24 06:28:10;;;;;;;9.35;6.30;;;;;;;4.99;70.29;99170.87;4452373;32;20156;-79
2023/12/24 06:30:41;;;;;;;6.62;5.72;;;;;;;5.11;70.07;99174.56;4451764;32;20175;-79
2023/12/24 06:33:16;;;;;;;9.00;7.12;;;;;;;5.05;70.04;99173.13;4451840;32;20171;-79
2023/12/24 06:35:46;;;;;;;7.72;6.45;;;;;;;5.27;69.20;99175.34;4452252;32;20172;-79
2023/12/24 06:38:15;;;;;;;8.23;5.82;;;;;;;5.14;69.56;99172.59;4451766;32;20164;-79
2023/12/24 06:40:45;;;;;;;7.43;6.25;;;;;;;5.10;69.65;99176.31;4451714;32;20155;-79
2023/12/24 06:43:13;;;;;;;10.60;7.70;;;;;;;5.26;69.11;99178.06;4451716;32;20164;-79
2023/12/24 06:45:44;;;;;;;7.93;6.15;;;;;;;5.17;69.41;99187.31;4451775;32;20167;-79
2023/12/24 06:48:16;;;;;;;10.65;5.90;;;;;;;5.22;69.45;99185.25;4451961;32;20524;-79
2023/12/24 06:50:47;;;;;;;8.38;5.93;;;;;;;5.17;69.51;99189.94;4452004;32;20164;-79
2023/12/24 06:53:20;;;;;;;8.38;5.75;;;;;;;5.04;70.02;99202.13;4451594;32;20147;-79
2023/12/24 06:55:50;;;;;;;5.97;4.68;;;;;;;5.22;69.49;99193.13;4451771;32;20159;-79
2023/12/24 06:58:18;;;;;;;6.95;5.78;;;;;;;5.20;69.59;99197.66;4451713;32;20156;-79
2023/12/24 07:00:49;;;;;;;7.55;4.90;;;;;;;5.21;69.71;99198.50;4451598;32;20168;-79
2023/12/24 07:03:24;;;;;;;6.28;5.35;;;;;;;5.12;70.04;99195.47;4452393;32;20207;-79
2023/12/24 07:05:54;;;;;;;6.20;5.18;;;;;;;5.11;70.42;99192.94;4453361;32;20233;-79
2023/12/24 07:08:23;;;;;;;8.68;6.07;;;;;;;5.34;69.77;99196.84;4452026;32;20156;-79
2023/12/24 07:10:53;;;;;;;13.52;7.78;;;;;;;5.28;69.84;99197.22;4445136;32;20163;-79
2023/12/24 07:13:22;;;;;;;18.08;7.65;;;;;;;5.32;69.95;99196.09;4452137;32;20183;-79
2023/12/24 07:15:53;;;;;;;13.35;7.47;;;;;;;5.50;69.63;99204.66;4452297;32;20163;-79
2023/12/24 07:18:25;;;;;;;7.60;5.22;;;;;;;5.40;69.92;99197.31;4438289;32;20152;-79
2023/12/24 07:20:55;;;;;;;5.25;4.20;;;;;;;5.57;69.44;99211.25;4446200;32;20196;-79
2023/12/24 07:23:23;;;;;;;6.85;4.03;;;;;;;5.55;69.63;99206.09;4452939;32;20151;-79
2023/12/24 07:25:52;;;;;;;15.85;9.70;;;;;;;5.53;69.63;99215.81;4451052;32;20164;-79
2023/12/24 07:28:21;;;;;;;38.13;21.52;;;;;;;5.50;69.96;99217.78;4452599;32;20168;-79
2023/12/24 07:30:50;;;;;;;19.65;13.88;;;;;;;5.48;69.99;99223.16;4452329;32;20175;-79
2023/12/24 07:33:20;;;;;;;5.72;4.65;;;;;;;5.65;69.53;99227.38;4452199;32;20168;-79
2023/12/24 07:35:54;;;;;;;5.53;4.80;;;;;;;5.81;68.66;99215.00;4452402;32;20551;-79
2023/12/24 07:38:29;;;;;;;8.38;5.35;;;;;;;5.60;69.53;99226.81;4452619;32;20215;-79
2023/12/24 07:41:03;;;;;;;5.55;4.55;;;;;;;5.62;69.53;99228.44;4452235;32;20144;-79
2023/12/24 07:43:32;;;;;;;9.98;6.05;;;;;;;5.93;68.49;99223.13;4451878;32;20152;-79
2023/12/24 07:46:02;;;;;;;6.20;4.75;;;;;;;6.23;67.38;99228.31;4451343;32;20174;-79
2023/12/24 07:48:34;;;;;;;5.47;4.25;;;;;;;5.96;68.60;99231.69;4451296;32;20156;-79
2023/12/24 07:51:04;;;;;;;8.25;4.72;;;;;;;5.67;69.98;99243.94;4451157;32;20242;-79
2023/12/24 07:53:33;;;;;;;5.82;3.83;;;;;;;5.50;71.04;99244.91;4451598;32;20176;-79
2023/12/24 07:56:03;;;;;;;6.93;5.85;;;;;;;5.37;71.77;99246.56;4451345;32;20540;-80
2023/12/24 07:58:31;;;;;;;9.00;7.95;;;;;;;5.55;71.49;99249.91;4451130;32;20230;-79
2023/12/24 08:01:01;;;;;;;9.60;8.05;;;;;;;5.63;71.05;99248.53;4451290;32;20168;-79
2023/12/24 08:03:35;;;;;;;10.48;8.95;;;;;;;5.64;70.92;99252.84;4451160;32;20171;-79
2023/12/24 08:06:05;;;;;;;13.60;12.00;;;;;;;5.59;70.90;99254.91;4451140;32;20531;-79
2023/12/24 08:08:34;;;;;;;12.00;10.65;;;;;;;5.34;71.88;99265.97;4451368;32;20156;-79
2023/12/24 08:11:04;;;;;;;13.77;9.82;;;;;;;5.63;71.07;99274.81;4451123;32;20147;-80
2023/12/24 08:13:44;;;;;;;11.00;9.77;;;;;;;5.72;72.98;99260.25;4451434;32;20500;-79
2023/12/24 08:16:13;;;;;;;10.18;8.48;;;;;;;5.78;71.72;99270.44;4451873;32;20167;-80
2023/12/24 08:18:44;;;;;;;10.52;8.50;;;;;;;5.94;71.17;99272.16;4451378;32;20160;-80
2023/12/24 08:21:14;;;;;;;8.27;6.90;;;;;;;5.84;71.18;99254.28;4451084;32;20171;-79
2023/12/24 08:23:43;;;;;;;7.07;6.37;;;;;;;5.71;71.62;99268.25;4451589;32;20191;-79
2023/12/24 08:26:12;;;;;;;7.53;5.60;;;;;;;5.87;71.21;99283.00;4451148;32;20160;-79
2023/12/24 08:28:43;;;;;;;11.10;5.35;;;;;;;6.34;69.53;99286.38;4451041;32;20433;-79
2023/12/24 08:31:12;;;;;;;12.82;8.93;;;;;;;6.37;69.28;99292.28;4450664;32;20164;-79
2023/12/24 08:33:41;;;;;;;18.35;14.93;;;;;;;6.22;69.96;99276.59;4450872;32;20767;-79
2023/12/24 08:36:12;;;;;;;17.35;13.23;;;;;;;6.44;69.34;99290.09;4451040;32;20167;-79
2023/12/24 08:38:41;;;;;;;18.52;12.70;;;;;;;6.42;69.69;99291.16;4453155;32;20156;-79
2023/12/24 08:41:10;;;;;;;14.40;10.45;;;;;;;6.26;70.48;99284.22;4452838;32;20175;-79
2023/12/24 08:43:39;;;;;;;11.10;8.27;;;;;;;6.35;70.46;99298.56;4452866;32;20170;-79
2023/12/24 08:46:09;;;;;;;14.73;11.30;;;;;;;6.57;69.16;99301.59;4452732;32;20821;-79
2023/12/24 08:48:39;;;;;;;13.90;9.38;;;;;;;6.29;70.33;99307.69;4452869;32;20187;-79
2023/12/24 08:51:08;;;;;;;9.13;7.32;;;;;;;6.46;70.19;99306.66;4452855;32;20191;-79
2023/12/24 08:53:38;;;;;;;5.55;4.28;;;;;;;6.71;69.24;99302.50;4453227;32;20151;-79
2023/12/24 08:56:08;;;;;;;7.80;6.05;;;;;;;6.56;70.38;99318.28;4453066;32;20589;-79
2023/12/24 08:58:37;;;;;;;14.55;12.32;;;;;;;6.59;70.80;99312.84;4453106;32;20152;-79
2023/12/24 09:01:06;;;;;;;17.45;14.77;;;;;;;6.77;69.99;99312.63;4453347;32;20160;-79
2023/12/24 09:03:35;;;;;;;14.50;13.02;;;;;;;6.82;69.52;99329.00;4453504;32;20171;-79
2023/12/24 09:06:09;;;;;;;11.63;8.85;;;;;;;6.77;69.82;99321.41;4453609;32;20215;-79
2023/12/24 09:08:40;;;;;;;11.23;7.78;;;;;;;6.72;70.15;99322.59;4453914;32;20171;-79
2023/12/24 09:11:10;;;;;;;13.27;9.45;;;;;;;6.71;70.32;99316.50;4453631;32;20455;-79
2023/12/24 09:13:39;;;;;;;10.77;8.77;;;;;;;6.91;70.00;99307.34;4453207;32;20206;-79
2023/12/24 09:16:07;;;;;;;8.35;7.53;;;;;;;7.03;69.73;99310.97;4453435;32;20516;-79
2023/12/24 09:18:36;;;;;;;10.32;7.85;;;;;;;7.22;69.54;99316.75;4453704;32;20160;-79
2023/12/24 09:21:10;;;;;;;10.43;7.82;;;;;;;7.46;68.84;99306.41;4453291;32;20219;-79
2023/12/24 09:23:39;;;;;;;9.80;8.90;;;;;;;7.65;68.71;99306.03;4452889;32;20195;-79
2023/12/24 09:26:09;;;;;;;11.70;9.45;;;;;;;7.82;68.26;99311.00;4452586;32;20163;-79
2023/12/24 09:28:38;;;;;;;13.45;11.00;;;;;;;8.23;66.87;99319.69;4452420;32;20171;-79
2023/12/24 09:31:08;;;;;;;12.20;10.13;;;;;;;8.10;66.63;99307.34;4452336;32;20183;-79
2023/12/24 09:33:45;;;;;;;15.70;11.90;;;;;;;8.29;66.21;99309.56;4452428;32;20167;-79
2023/12/24 09:36:15;;;;;;;14.15;11.07;;;;;;;8.29;66.81;99314.84;4452358;32;20167;-79
2023/12/24 09:38:47;;;;;;;12.55;11.02;;;;;;;8.33;66.82;99305.78;4453335;32;20290;-79
2023/12/24 09:41:19;;;;;;;9.88;8.15;;;;;;;8.32;66.70;99312.00;4452772;32;20168;-79
2023/12/24 09:43:48;;;;;;;15.10;8.57;;;;;;;8.39;66.51;99315.06;4453059;32;20437;-79
2023/12/24 09:46:18;;;;;;;13.13;6.93;;;;;;;8.50;65.96;99314.34;4452140;32;20175;-79
2023/12/24 09:48:53;;;;;;;11.12;7.05;;;;;;;8.42;65.78;99314.03;4451600;32;20191;-79
2023/12/24 09:51:23;;;;;;;;;;;;;;;8.58;65.27;99323.41;4452601;32;20190;-79
2023/12/24 09:53:55;;;;;;;8.05;7.20;;;;;;;8.69;64.78;99321.81;4452190;32;20405;-79
2023/12/24 09:56:26;;;;;;;10.73;8.13;;;;;;;8.65;64.12;99328.28;4452786;32;20151;-79
2023/12/24 09:58:55;;;;;;;10.70;6.85;;;;;;;8.66;64.21;99325.50;4452313;32;20171;-79
2023/12/24 10:01:28;;;;;;;11.52;7.97;;;;;;;8.70;64.14;99321.69;4452154;32;20155;-79
2023/12/24 10:04:00;;;;;;;12.20;8.30;;;;;;;8.65;64.25;99315.91;4452153;32;20184;-79
2023/12/24 10:06:30;;;;;;;5.47;4.00;;;;;;;8.68;64.36;99317.50;4452224;32;20159;-79
2023/12/24 10:09:00;;;;;;;6.82;4.43;;;;;;;8.60;64.35;99320.66;4452441;32;20447;-79
2023/12/24 10:11:37;;;;;;;6.18;4.10;;;;;;;8.61;64.67;99317.06;4452254;32;20168;-79
2023/12/24 10:14:06;;;;;;;6.62;4.95;;;;;;;8.74;64.42;99315.25;4452145;32;20465;-79
2023/12/24 10:16:43;;;;;;;8.77;4.85;;;;;;;8.64;65.49;99301.03;4452115;32;20175;-79
2023/12/24 10:19:23;;;;;;;6.35;4.60;;;;;;;8.84;65.19;99292.50;4452175;32;20171;-79
2023/12/24 10:22:01;;;;;;;8.20;6.12;;;;;;;8.89;65.30;99291.34;4452360;32;20167;-79
2023/12/24 10:24:31;;;;;;;29.50;18.35;;;;;;;9.00;65.64;99294.91;4452067;32;20741;-79
2023/12/24 10:27:06;;;;;;;45.72;27.02;;;;;;;9.03;65.65;99289.41;4452198;32;20367;-79
2023/12/24 10:29:37;;;;;;;19.62;9.52;;;;;;;9.03;65.57;99292.03;4452342;32;20175;-79
2023/12/24 10:32:10;;;;;;;10.80;6.60;;;;;;;9.13;64.13;99283.44;4452980;32;20152;-79
2023/12/24 10:34:40;;;;;;;7.00;4.30;;;;;;;9.26;62.41;99289.50;4451984;32;20179;-79
2023/12/24 10:37:18;;;;;;;4.78;4.10;;;;;;;9.22;61.52;99293.31;4451858;32;20156;-79
2023/12/24 10:39:49;;;;;;;7.62;4.45;;;;;;;9.18;61.47;99287.41;4453963;32;20156;-79
2023/12/24 10:42:20;;;;;;;4.78;3.62;;;;;;;9.08;61.41;99292.53;4451893;32;20151;-79
2023/12/24 10:44:50;;;;;;;7.20;3.62;;;;;;;9.16;61.05;99297.25;4451892;32;20187;-79
2023/12/24 10:47:19;;;;;;;6.32;2.97;;;;;;;9.15;60.44;99294.75;4452165;32;20159;-79
2023/12/24 10:49:48;;;;;;;7.40;3.35;;;;;;;9.12;60.80;99293.16;4452133;32;20156;-79
2023/12/24 10:52:18;;;;;;;4.87;2.80;;;;;;;8.74;61.90;99304.69;4452200;32;20452;-79
2023/12/24 10:54:48;;;;;;;5.45;3.42;;;;;;;8.66;62.42;99298.25;4447294;32;159544;-79
2023/12/24 10:57:28;;;;;;;8.85;4.12;;;;;;;8.91;61.28;99289.41;4452446;32;20140;-79
2023/12/24 11:00:07;;;;;;;21.50;7.22;;;;;;;8.86;61.38;99280.03;4451933;32;20187;-79
2023/12/24 11:02:38;;;;;;;18.62;8.77;;;;;;;8.92;61.59;99283.19;4452688;32;20152;-80
2023/12/24 11:05:07;;;;;;;11.55;6.85;;;;;;;8.51;63.08;99285.19;4452300;32;20509;-79
2023/12/24 11:07:50;;;;;;;5.32;3.85;;;;;;;8.74;61.97;99275.63;4452231;32;20152;-79
2023/12/24 11:10:40;;;;;;;6.50;4.25;;;;;;;8.78;61.63;99261.25;4452093;32;20184;-79
2023/12/24 11:13:44;;;;;;;7.53;4.90;;;;;;;9.08;60.80;99262.63;4451674;32;20183;-79
2023/12/24 11:16:38;;;;;;;7.55;5.18;;;;;;;8.71;61.92;99259.16;4451923;32;20171;-80
2023/12/24 11:19:24;;;;;;;;;;;;;;;8.72;62.51;99256.41;4452342;32;20451;-80
2023/12/24 11:22:09;;;;;;;6.78;4.55;;;;;;;8.86;62.17;99248.31;4452132;32;20063;-80
2023/12/24 11:24:42;;;;;;;3.97;2.83;;;;;;;8.94;62.00;99242.47;4451840;32;20152;-79
2023/12/24 11:27:14;;;;;;;2.85;2.40;;;;;;;8.79;62.86;99240.94;4452233;32;20511;-79
2023/12/24 11:29:50;;;;;;;7.40;2.97;;;;;;;8.76;63.14;99244.66;4452234;32;20904;-80
2023/12/24 11:32:34;;;;;;;4.37;2.92;;;;;;;8.76;63.50;99241.19;4451298;32;20516;-79
2023/12/24 11:35:06;;;;;;;4.20;1.95;;;;;;;9.00;62.79;99246.50;4451744;32;20185;-79
2023/12/24 11:37:39;;;;;;;2.67;1.98;;;;;;;9.13;62.72;99235.84;4451786;32;20159;-79
2023/12/24 11:40:18;;;;;;;4.45;2.05;;;;;;;9.37;62.51;99234.03;4451729;32;20183;-79
2023/12/24 11:42:49;;;;;;;3.40;2.17;;;;;;;9.11;63.28;99239.47;4451536;32;20176;-79
2023/12/24 11:45:29;;;;;;;3.40;2.17;;;;;;;9.40;63.08;99236.44;4451697;32;20140;-79
2023/12/24 11:48:06;;;;;;;7.32;4.70;;;;;;;9.45;63.15;99236.09;4451581;32;20164;-79
2023/12/24 11:50:35;;;;;;;15.13;12.82;;;;;;;9.69;62.80;99250.09;4451952;32;20152;-79
2023/12/24 11:53:05;;;;;;;9.93;6.12;;;;;;;9.68;63.08;99244.94;4451463;32;20159;-80
2023/12/24 11:55:34;;;;;;;6.10;3.85;;;;;;;9.28;63.55;99245.28;4451491;32;20175;-80
2023/12/24 11:58:04;;;;;;;7.95;3.90;;;;;;;9.72;62.94;99243.75;4451534;32;20183;-79